createdAt,value
2022-10-16T00:01:21.821Z,100278.66
2022-10-16T00:05:23.735Z,100281.94
2022-10-16T00:09:25.732Z,100288.44
2022-10-16T00:13:27.740Z,100293.67
2022-10-16T00:17:30.220Z,100293.77
2022-10-16T00:21:32.319Z,100290.02
2022-10-16T00:25:34.233Z,100288.78
2022-10-16T00:29:36.077Z,100294.31
2022-10-16T00:33:40.212Z,100297.41
2022-10-16T00:37:42.130Z,100302.90
2022-10-16T00:41:43.974Z,100302.02
2022-10-16T00:45:45.747Z,100296.98
2022-10-16T00:49:50.078Z,100290.77
2022-10-16T00:53:52.448Z,100287.17
2022-10-16T00:57:55.048Z,100287.35
2022-10-16T01:01:58.120Z,100281.02
2022-10-16T01:06:26.827Z,100289.67
2022-10-16T01:10:53.901Z,100297.23
2022-10-16T01:15:09.672Z,100298.88
2022-10-16T01:19:32.625Z,100304.84
2022-10-16T01:23:52.308Z,100299.91
2022-10-16T01:27:55.439Z,100298.27
2022-10-16T01:32:02.693Z,100297.66
2022-10-16T01:36:12.412Z,100298.77
2022-10-16T01:40:19.913Z,100292.34
2022-10-16T01:44:28.793Z,100290.13
2022-10-16T01:48:33.715Z,100297.96
2022-10-16T01:52:40.673Z,100299.89
2022-10-16T01:56:44.037Z,100303.18
2022-10-16T02:00:48.415Z,100308.56
2022-10-16T02:04:58.837Z,100323.58
2022-10-16T02:09:00.801Z,100330.41
2022-10-16T02:13:37.659Z,100324.91
2022-10-16T02:17:39.583Z,100322.75
2022-10-16T02:21:47.215Z,100323.75
2022-10-16T02:25:51.477Z,100328.13
2022-10-16T02:30:00.716Z,100331.84
2022-10-16T02:34:05.624Z,100331.83
2022-10-16T02:42:14.208Z,100335.70
2022-10-16T02:46:18.224Z,100336.21
2022-10-16T02:50:20.211Z,100335.46
2022-10-16T02:54:22.057Z,100321.91
2022-10-16T02:58:23.878Z,100316.95
2022-10-16T03:02:25.833Z,100313.83
2022-10-16T03:06:27.676Z,100318.14
2022-10-16T03:10:29.566Z,100316.80
2022-10-16T03:14:31.493Z,100322.41
2022-10-16T03:18:33.351Z,100330.02
2022-10-16T03:22:35.290Z,100326.64
2022-10-16T03:26:37.677Z,100330.59
2022-10-16T03:30:40.316Z,100333.10
2022-10-16T03:34:42.196Z,100342.33
2022-10-16T03:38:45.020Z,100347.09
2022-10-16T03:42:46.995Z,100351.60
2022-10-16T03:46:48.885Z,100357.64
2022-10-16T03:50:52.141Z,100363.04
2022-10-16T03:54:54.078Z,100367.70
2022-10-16T03:58:55.898Z,100367.22
2022-10-16T04:02:57.786Z,100369.09
2022-10-16T04:06:59.633Z,100369.39
2022-10-16T04:11:02.080Z,100368.50
2022-10-16T04:15:04.009Z,100368.95
2022-10-16T04:19:05.883Z,100366.42
2022-10-16T04:23:07.697Z,100371.52
2022-10-16T04:27:09.526Z,100375.08
2022-10-16T04:31:11.421Z,100378.98
2022-10-16T04:35:13.232Z,100373.70
2022-10-16T04:39:15.058Z,100377.41
2022-10-16T04:43:16.952Z,100378.54
2022-10-16T04:47:19.191Z,100382.39
2022-10-16T04:51:21.111Z,100384.17
2022-10-16T04:55:23.006Z,100393.54
2022-10-16T04:59:24.858Z,100398.56
2022-10-16T05:03:26.756Z,100399.05
2022-10-16T05:07:28.799Z,100400.08
2022-10-16T05:11:31.227Z,100399.60
2022-10-16T05:15:33.019Z,100408.06
2022-10-16T05:19:34.977Z,100411.14
2022-10-16T05:23:36.782Z,100419.45
2022-10-16T05:27:38.698Z,100425.27
2022-10-16T05:31:40.657Z,100424.08
2022-10-16T05:35:42.827Z,100427.35
2022-10-16T05:39:44.696Z,100425.30
2022-10-16T05:43:46.499Z,100427.01
2022-10-16T05:47:48.322Z,100430.91
2022-10-16T05:51:50.286Z,100430.45
2022-10-16T05:55:53.678Z,100434.80
2022-10-16T05:59:56.681Z,100443.33
2022-10-16T06:03:59.028Z,100441.73
2022-10-16T06:08:00.875Z,100447.41
2022-10-16T06:12:03.022Z,100450.23
2022-10-16T06:16:05.359Z,100456.02
2022-10-16T06:20:07.547Z,100463.13
2022-10-16T06:24:10.872Z,100465.20
2022-10-16T06:28:14.940Z,100471.90
2022-10-16T06:32:17.029Z,100467.05
2022-10-16T06:36:19.096Z,100468.44
2022-10-16T06:40:21.007Z,100467.60
2022-10-16T06:44:22.986Z,100476.02
2022-10-16T06:48:25.835Z,100482.28
2022-10-16T06:52:30.797Z,100490.71
2022-10-16T06:56:33.426Z,100493.94
2022-10-16T07:00:35.700Z,100486.95
2022-10-16T07:04:37.520Z,100485.89
2022-10-16T07:08:41.701Z,100482.52
2022-10-16T07:12:45.636Z,100477.45
2022-10-16T07:16:48.787Z,100495.70
2022-10-16T07:20:50.616Z,100506.20
2022-10-16T07:24:53.111Z,100497.86
2022-10-16T07:28:55.448Z,100505.33
2022-10-16T07:32:57.373Z,100501.84
2022-10-16T07:36:59.315Z,100498.99
2022-10-16T07:41:05.229Z,100503.48
2022-10-16T07:45:07.870Z,100509.59
2022-10-16T07:49:09.824Z,100523.41
2022-10-16T07:53:12.737Z,100537.02
2022-10-16T07:57:19.863Z,100535.73
2022-10-16T08:01:21.953Z,100536.23
2022-10-16T08:05:23.806Z,100536.46
2022-10-16T08:09:25.694Z,100541.25
2022-10-16T08:13:27.679Z,100538.54
2022-10-16T08:17:29.763Z,100538.33
2022-10-16T08:21:31.602Z,100540.20
2022-10-16T08:25:36.827Z,100545.77
2022-10-16T08:29:39.132Z,100545.27
2022-10-16T08:33:42.781Z,100544.93
2022-10-16T08:37:44.715Z,100542.69
2022-10-16T08:41:46.591Z,100536.49
2022-10-16T08:46:16.487Z,100532.78
2022-10-16T08:50:27.612Z,100536.19
2022-10-16T08:54:41.248Z,100536.63
2022-10-16T08:58:49.879Z,100539.79
2022-10-16T09:03:03.905Z,100542.27
2022-10-16T09:07:16.969Z,100545.13
2022-10-16T09:11:27.995Z,100538.10
2022-10-16T09:15:35.936Z,100535.17
2022-10-16T09:19:46.959Z,100531.17
2022-10-16T09:23:49.645Z,100525.77
2022-10-16T09:27:54.015Z,100531.54
2022-10-16T09:32:07.667Z,100539.26
2022-10-16T09:36:10.983Z,100541.17
2022-10-16T09:40:24.004Z,100545.85
2022-10-16T09:44:30.413Z,100553.42
2022-10-16T09:48:38.589Z,100555.34
2022-10-16T09:52:40.907Z,100560.37
2022-10-16T09:56:46.063Z,100562.19
2022-10-16T10:00:55.114Z,100564.58
2022-10-16T10:04:57.827Z,100553.75
2022-10-16T10:09:01.125Z,100549.35
2022-10-16T10:13:03.169Z,100548.23
2022-10-16T10:17:31.908Z,100547.06
2022-10-16T10:21:34.525Z,100543.80
2022-10-16T10:25:53.119Z,100542.70
2022-10-16T10:30:07.703Z,100536.61
2022-10-16T10:34:59.070Z,100534.70
2022-10-16T10:39:08.394Z,100534.67
2022-10-16T10:43:28.952Z,100537.41
2022-10-16T10:47:57.538Z,100541.77
2022-10-16T10:52:18.476Z,100544.63
2022-10-16T10:56:52.755Z,100541.40
2022-10-16T11:01:12.444Z,100537.11
2022-10-16T11:05:14.249Z,100524.00
2022-10-16T11:09:28.722Z,100513.36
2022-10-16T11:13:50.767Z,100513.33
2022-10-16T11:17:59.799Z,100505.56
2022-10-16T11:22:23.113Z,100500.92
2022-10-16T11:26:34.518Z,100501.66
2022-10-16T11:31:11.607Z,100499.83
2022-10-16T11:35:22.199Z,100505.33
2022-10-16T11:39:31.258Z,100506.38
2022-10-16T11:43:39.111Z,100504.44
2022-10-16T11:48:00.298Z,100498.67
2022-10-16T11:52:17.148Z,100499.73
2022-10-16T11:56:21.510Z,100501.37
2022-10-16T12:00:35.514Z,100504.43
2022-10-16T12:04:51.699Z,100510.00
2022-10-16T12:08:54.978Z,100514.36
2022-10-16T12:12:58.170Z,100516.89
2022-10-16T12:17:24.705Z,100515.83
2022-10-16T12:21:31.931Z,100517.04
2022-10-16T12:25:46.739Z,100519.95
2022-10-16T12:29:56.719Z,100520.98
2022-10-16T12:34:02.812Z,100519.77
2022-10-16T12:38:18.302Z,100511.23
2022-10-16T12:42:26.615Z,100506.59
2022-10-16T12:46:33.662Z,100507.30
2022-10-16T12:50:38.801Z,100510.26
2022-10-16T12:54:42.429Z,100510.08
2022-10-16T12:58:50.533Z,100507.58
2022-10-16T13:03:12.662Z,100510.21
2022-10-16T13:07:35.899Z,100515.83
2022-10-16T13:11:58.948Z,100520.43
2022-10-16T13:16:13.165Z,100525.29
2022-10-16T13:20:20.933Z,100527.13
2022-10-16T13:24:52.106Z,100526.64
2022-10-16T13:28:54.029Z,100519.45
2022-10-16T13:33:13.948Z,100515.45
2022-10-16T13:37:21.548Z,100519.42
2022-10-16T13:41:23.428Z,100515.59
2022-10-16T13:45:26.022Z,100514.77
2022-10-16T13:49:28.647Z,100518.42
2022-10-16T13:53:35.838Z,100530.19
2022-10-16T13:57:37.949Z,100535.49
2022-10-16T14:01:44.603Z,100541.52
2022-10-16T14:05:48.809Z,100547.67
2022-10-16T14:09:52.333Z,100555.22
2022-10-16T14:13:55.433Z,100559.48
2022-10-16T14:17:58.700Z,100563.29
2022-10-16T14:22:02.714Z,100559.44
2022-10-16T14:26:10.794Z,100561.95
2022-10-16T14:30:18.389Z,100562.58
2022-10-16T14:34:35.549Z,100567.83
2022-10-16T14:38:39.292Z,100566.59
2022-10-16T14:42:44.673Z,100564.36
2022-10-16T14:46:46.820Z,100566.25
2022-10-16T14:50:48.868Z,100571.02
2022-10-16T14:54:55.139Z,100569.05
2022-10-16T14:58:57.784Z,100571.59
2022-10-16T15:02:59.700Z,100572.52
2022-10-16T15:07:01.467Z,100573.21
2022-10-16T15:11:03.364Z,100575.26
2022-10-16T15:15:23.687Z,100580.58
2022-10-16T15:19:25.556Z,100588.94
2022-10-16T15:23:27.476Z,100590.05
2022-10-16T15:27:29.584Z,100591.14
2022-10-16T15:31:32.800Z,100594.34
2022-10-16T15:35:34.772Z,100590.27
2022-10-16T15:39:41.248Z,100589.11
2022-10-16T15:43:45.530Z,100585.11
2022-10-16T15:47:47.888Z,100586.71
2022-10-16T15:51:49.694Z,100591.45
2022-10-16T15:55:51.729Z,100598.87
2022-10-16T15:59:53.578Z,100602.66
2022-10-16T16:03:56.263Z,100610.03
2022-10-16T16:07:58.129Z,100620.65
2022-10-16T16:12:01.509Z,100625.98
2022-10-16T16:16:07.189Z,100627.88
2022-10-16T16:20:09.904Z,100631.30
2022-10-16T16:24:11.881Z,100639.84
2022-10-16T16:28:14.878Z,100635.67
2022-10-16T16:32:16.851Z,100639.97
2022-10-16T16:36:19.683Z,100646.67
2022-10-16T16:40:21.545Z,100649.36
2022-10-16T16:44:23.565Z,100652.27
2022-10-16T16:48:25.468Z,100657.56
2022-10-16T16:52:29.957Z,100655.50
2022-10-16T16:56:31.825Z,100654.88
2022-10-16T17:00:33.814Z,100658.70
2022-10-16T17:04:35.658Z,100660.91
2022-10-16T17:08:38.912Z,100670.05
2022-10-16T17:12:41.412Z,100673.16
2022-10-16T17:16:48.115Z,100677.96
2022-10-16T17:20:50.780Z,100681.39
2022-10-16T17:24:54.258Z,100683.01
2022-10-16T17:28:58.677Z,100691.05
2022-10-16T17:33:01.594Z,100698.88
2022-10-16T17:37:03.553Z,100700.18
2022-10-16T17:41:23.249Z,100702.14
2022-10-16T17:45:25.317Z,100701.05
2022-10-16T17:49:27.206Z,100704.30
2022-10-16T17:53:29.445Z,100706.39
2022-10-16T17:57:31.336Z,100705.73
2022-10-16T18:01:36.434Z,100712.00
2022-10-16T18:05:38.299Z,100713.43
2022-10-16T18:10:09.991Z,100715.63
2022-10-16T18:14:03.131Z,100726.00
2022-10-16T18:18:05.882Z,100733.47
2022-10-16T18:22:07.844Z,100740.95
2022-10-16T18:26:11.173Z,100747.14
2022-10-16T18:30:13.565Z,100756.46
2022-10-16T18:34:16.255Z,100758.01
2022-10-16T18:38:19.223Z,100768.73
2022-10-16T18:42:21.318Z,100766.41
2022-10-16T18:46:25.108Z,100763.41
2022-10-16T18:50:26.960Z,100771.50
2022-10-16T18:54:30.393Z,100778.15
2022-10-16T18:58:34.753Z,100781.45
2022-10-16T19:02:36.607Z,100784.30
2022-10-16T19:06:42.891Z,100783.08
2022-10-16T19:10:44.934Z,100785.66
2022-10-16T19:14:50.098Z,100794.00
2022-10-16T19:18:55.048Z,100805.11
2022-10-16T19:22:58.562Z,100805.47
2022-10-16T19:27:00.440Z,100810.65
2022-10-16T19:31:07.368Z,100810.10
2022-10-16T19:35:09.353Z,100817.09
2022-10-16T19:39:13.894Z,100822.02
2022-10-16T19:43:16.121Z,100827.70
2022-10-16T19:47:20.803Z,100835.17
2022-10-16T19:51:26.319Z,100832.44
2022-10-16T19:55:31.069Z,100834.80
2022-10-16T19:59:33.092Z,100839.00
2022-10-16T20:03:40.926Z,100839.66
2022-10-16T20:07:42.741Z,100843.52
2022-10-16T20:11:44.621Z,100850.13
2022-10-16T20:15:47.390Z,100853.97
2022-10-16T20:19:49.213Z,100855.86
2022-10-16T20:23:51.588Z,100854.15
2022-10-16T20:27:53.458Z,100858.66
2022-10-16T20:31:55.511Z,100860.55
2022-10-16T20:35:57.388Z,100858.88
2022-10-16T20:39:59.268Z,100862.61
2022-10-16T20:44:03.049Z,100869.73
2022-10-16T20:48:05.399Z,100869.61
2022-10-16T20:52:07.376Z,100874.70
2022-10-16T20:56:09.385Z,100871.27
2022-10-16T21:00:12.448Z,100873.90
2022-10-16T21:04:14.290Z,100882.59
2022-10-16T21:08:16.325Z,100897.27
2022-10-16T21:12:18.224Z,100907.08
2022-10-16T21:16:20.855Z,100908.21
2022-10-16T21:20:22.804Z,100910.13
2022-10-16T21:24:24.751Z,100917.08
2022-10-16T21:28:29.958Z,100918.42
2022-10-16T21:32:31.881Z,100914.52
2022-10-16T21:36:36.455Z,100910.60
2022-10-16T21:40:38.319Z,100921.39
2022-10-16T21:44:40.205Z,100930.23
2022-10-16T21:48:45.127Z,100939.27
2022-10-16T21:52:46.976Z,100936.08
2022-10-16T21:56:49.199Z,100940.14
2022-10-16T22:00:51.140Z,100939.14
2022-10-16T22:04:52.986Z,100940.09
2022-10-16T22:09:00.978Z,100944.77
2022-10-16T22:13:02.863Z,100951.50
2022-10-16T22:17:04.743Z,100954.01
2022-10-16T22:21:09.191Z,100947.24
2022-10-16T22:25:11.233Z,100947.92
2022-10-16T22:29:14.154Z,100951.25
2022-10-16T22:33:15.983Z,100947.87
2022-10-16T22:37:17.861Z,100944.64
2022-10-16T22:41:20.932Z,100942.49
2022-10-16T22:45:22.971Z,100943.90
2022-10-16T22:49:24.966Z,100948.26
2022-10-16T22:53:26.966Z,100952.80
2022-10-16T22:57:28.825Z,100960.92
2022-10-16T23:01:37.614Z,100968.12
2022-10-16T23:05:41.619Z,100964.52
2022-10-16T23:09:43.500Z,100966.35
2022-10-16T23:13:45.840Z,100971.00
2022-10-16T23:17:47.836Z,100982.20
2022-10-16T23:21:49.731Z,100993.69
2022-10-16T23:25:51.700Z,100998.58
2022-10-16T23:29:53.598Z,101002.19
2022-10-16T23:33:57.097Z,101005.67
2022-10-16T23:37:58.984Z,101008.83
2022-10-16T23:42:01.072Z,101019.31
2022-10-16T23:46:03.440Z,101033.06
2022-10-16T23:50:05.850Z,101031.92
2022-10-16T23:54:08.016Z,101033.52
2022-10-16T23:58:09.919Z,101029.86
